Decoded Metar for KOFP (RICHMOND/HANOVER in VA, USA) (IATA:OFP) | Meteo·Mobile Aviation Weather
aviador You're here:

KOFP Decoded Metar

RICHMOND/HANOVER in VA, USA
Report Time2018-10-19 08:54:00
UTC Time2018-10-19 09:13:27
Flight Rules vfr VFR
WindCalm
Visibility9999 m
Phenomena:N/A
Clouds:N/A
CeilingNone
Temp03°C (ISA -12)
Dew Point03°C (100% RH)
AAT1.5°C
QNH1029 hPa
Density Alt-1,644 ft
Elevation203 ft
Report Wrong Elevation
Raw Report
KOFP 190854Z AUTO 00000KT 8SM CLR 03/03 A3039 RMK AO2 SLP292
T00330028 58003=

Extra information for KOFP:More info

Metar Taf Metar & Taf Last 4 Metars F.Rules Stats Wind Profile Meteogram Temp Stats Airport Information Weather charts Add Link Nearby VenuesMetar ALERT Operation Metar Decoded Social comments

AIRNAV info for KOFP